Aérodrome :
LOGIN :

S'inscrire | Disclaimer

   EN    FR    IT 

 










Légende :    VFR   VFR Marginal   IFR   IFR Intensif   IFR Très Intensif
Visi : 
Plafond : 
>= 8 km
>= 3000ft
5 à 8 km
1000 à 3000 ft
1500m à 5 km
500 à 1000 ft
800 à 1500m
200 à 500 ft
< 800m
< 200 ft
Symboles :   Orages  Brouillard  Fortes neiges  Fortes précipitations  Vent > 20 kt
SIGMETs :   Divers  Orages  Givrage  Turbulence  Onde Orograph.  Cendres Volcan.






- Altitude de l'aérodrome : 433 ft


LFOC - Chateaudun

DERNIER METAR :
  • 291000Z AUTO 25013KT 9999 ////// 08/06 Q1016

METARs EXPIRÉS :
  • 290930Z AUTO 25010KT 9999 ////// 08/06 Q1016
  • 290900Z AUTO 25010KT 9999 ////// 07/05 Q1015
  • 290830Z AUTO 24010KT 9999 ////// 06/05 Q1015
  • 290800Z AUTO 24011KT 9999 ////// 06/05 Q1015
  • 290730Z AUTO 25012KT 9999 ////// 06/05 Q1014

TAF TAF LFOC
Valide du 29 à 09h jusqu'au 30 à 09h UTC


290800Z 2909/3009 24010KT 9999 SCT018
PROB30
TEMPO 2913/2916 4000 SHRA BKN030TCU
BECMG 2923/3001 18012KT
BECMG 3003/3006 BKN010 BKN022
PROB40
TEMPO 3006/3009 4000 BR OVC005



MET'MAP, la Météo Aéronautique d'un coup d'oeil ! - Copyright ORBIFLY Décembre 2007 - Disclaimer

ORBIFLY MET'MAP TEAM :

Programmation & Développement : Alexandra Zaïnal
Sur une idée originale de : Baudouin d'Aumeries
Assistance à la programmation : Marc-Olivier Méhu
Soutien technique & logistique : Manuel Goepfert

Contact : metmap@orbifly.com




SOURCES & CREDITS :

   NOAA